Terminal Aerodrome Forecast
Issued by NWS Bismarck, ND

Home | Current Version | Previous Version | Graphics & Text | Print | Product List | Glossary On
Versions: 1 2 3 4 5 6 7 8 9 10 11 12 13 14 15 16 17 18 19 20 21 22
911
FTUS43 KBIS 221249 AAA
TAFISN
TAF AMD
KISN 221249Z 2213/2312 29008KT P6SM OVC013
      TEMPO 2213/2216 5SM BR OVC011
     FM221600 27010KT P6SM OVC015
     FM230500 25005KT 3SM BR SCT003 OVC008=

USA.gov is the U.S. government's official web portal to all federal, state and local government web resources and services.